Time;durP1;ratioP1;P1;durP2;ratioP2;P2;SDS_P1;SDS_P2;PMS_P1;PMS_P2;Temp;Humidity;BMP_temperature;BMP_pressure;BME280_temperature;BME280_humidity;BME280_pressure;Samples;Min_cycle;Max_cycle;Signal;HPM_P1;HPM_P2
2021/12/04 00:01:49;;;;;;;0.40;0.40;;;;;;;11.34;100.00;94629.88;5030434;28;20508;-54
2021/12/04 00:04:23;;;;;;;0.50;0.50;;;;;;;11.28;100.00;94635.56;5030392;28;20518;-52
2021/12/04 00:06:51;;;;;;;0.43;0.43;;;;;;;11.35;100.00;94636.75;5030383;28;20439;-52
2021/12/04 00:09:21;;;;;;;0.30;0.30;;;;;;;11.39;100.00;94629.78;5029159;28;20559;-52
2021/12/04 00:11:55;;;;;;;0.50;0.30;;;;;;;11.23;100.00;94646.25;5030074;28;20494;-52
2021/12/04 00:14:24;;;;;;;0.40;0.30;;;;;;;10.87;100.00;94630.06;5030056;28;20438;-52
2021/12/04 00:16:53;;;;;;;1.10;1.00;;;;;;;10.66;100.00;94604.91;5030033;28;20428;-52
2021/12/04 00:19:24;;;;;;;0.50;0.37;;;;;;;10.89;100.00;94643.03;5030185;28;20817;-52
2021/12/04 00:21:54;;;;;;;0.50;0.30;;;;;;;10.87;100.00;94610.72;5030214;28;21006;-54
2021/12/04 00:24:23;;;;;;;0.40;0.30;;;;;;;11.08;100.00;94628.69;5029846;28;20483;-52
2021/12/04 00:26:53;;;;;;;0.33;0.27;;;;;;;11.24;100.00;94634.53;5028618;28;20518;-52
2021/12/04 00:29:22;;;;;;;0.40;0.30;;;;;;;11.21;100.00;94627.94;5028778;28;20483;-52
2021/12/04 00:31:57;;;;;;;0.30;0.30;;;;;;;11.54;100.00;94612.81;5029169;28;20941;-52
2021/12/04 00:34:30;;;;;;;0.97;0.60;;;;;;;11.68;100.00;94618.16;5029919;28;20463;-52
2021/12/04 00:50:52;;;;;;;0.50;0.50;;;;;;;11.24;100.00;94613.31;5029662;28;20462;-52
2021/12/04 00:53:20;;;;;;;0.50;0.50;;;;;;;11.56;100.00;94617.84;5029560;28;20459;-53
2021/12/04 00:55:48;;;;;;;0.40;0.30;;;;;;;11.68;100.00;94608.38;5029422;28;20927;-53
2021/12/04 00:58:17;;;;;;;0.43;0.43;;;;;;;11.32;100.00;94594.09;5029520;28;20428;-53
2021/12/04 01:00:45;;;;;;;0.30;0.20;;;;;;;11.44;100.00;94605.81;5029618;28;20427;-53
2021/12/04 01:03:14;;;;;;;0.30;0.20;;;;;;;11.50;100.00;94609.19;5029647;28;20431;-53
2021/12/04 01:05:42;;;;;;;2.40;2.10;;;;;;;11.64;100.00;94617.19;5029145;28;20491;-53
2021/12/04 01:08:12;;;;;;;0.40;0.30;;;;;;;11.67;100.00;94603.28;5029069;28;20526;-53
2021/12/04 01:10:40;;;;;;;0.30;0.20;;;;;;;11.80;100.00;94613.97;5029295;28;20430;-53
2021/12/04 01:13:11;;;;;;;0.40;0.30;;;;;;;11.71;100.00;94614.94;5029524;28;20522;-53
2021/12/04 01:15:42;;;;;;;0.43;0.40;;;;;;;11.76;100.00;94609.56;5029053;28;20492;-53
2021/12/04 01:18:11;;;;;;;0.40;0.30;;;;;;;11.68;100.00;94602.22;5029066;28;20459;-53
2021/12/04 01:20:39;;;;;;;0.50;0.30;;;;;;;11.65;100.00;94595.63;5029023;28;21003;-53
2021/12/04 01:23:08;;;;;;;0.30;0.20;;;;;;;11.69;100.00;94603.84;5028203;28;20455;-53
2021/12/04 01:25:39;;;;;;;0.47;0.37;;;;;;;11.69;100.00;94614.47;5028929;28;20478;-53
2021/12/04 01:28:08;;;;;;;0.40;0.40;;;;;;;11.17;100.00;94621.66;5027493;28;20427;-53
2021/12/04 01:30:36;;;;;;;0.40;0.30;;;;;;;11.10;100.00;94628.41;5029275;28;20577;-53
2021/12/04 01:33:05;;;;;;;0.83;0.83;;;;;;;11.35;100.00;94612.88;5028570;28;20427;-53
2021/12/04 01:35:34;;;;;;;0.37;0.27;;;;;;;11.44;100.00;94605.81;5028760;28;20474;-53
2021/12/04 01:38:02;;;;;;;0.63;0.63;;;;;;;11.51;100.00;94602.78;5028733;28;20427;-53
2021/12/04 01:40:31;;;;;;;0.30;0.20;;;;;;;11.40;100.00;94588.91;5029212;28;20439;-53
2021/12/04 01:43:01;;;;;;;1.33;1.23;;;;;;;11.15;100.00;94592.00;5028900;28;20533;-53
2021/12/04 01:45:29;;;;;;;3.80;1.37;;;;;;;11.03;100.00;94586.31;5028797;28;20488;-52
2021/12/04 01:48:03;;;;;;;1.50;1.40;;;;;;;11.08;100.00;94580.94;5029032;28;20426;-53
2021/12/04 01:50:33;;;;;;;0.50;0.47;;;;;;;11.14;100.00;94574.50;5028347;28;20910;-53
2021/12/04 01:53:02;;;;;;;0.40;0.30;;;;;;;11.24;100.00;94569.03;5028530;28;20504;-53
2021/12/04 01:55:32;;;;;;;0.30;0.30;;;;;;;11.45;100.00;94564.94;5028782;28;20461;-53
2021/12/04 01:58:03;;;;;;;0.80;0.60;;;;;;;11.28;100.00;94572.66;5028776;28;20431;-52
2021/12/04 02:00:34;;;;;;;1.23;1.23;;;;;;;10.36;100.00;94457.00;5028958;28;20521;-52
2021/12/04 02:03:04;;;;;;;4.33;1.00;;;;;;;11.08;100.00;94565.03;5028945;28;20427;-53
2021/12/04 02:05:32;;;;;;;0.40;0.40;;;;;;;11.20;100.00;94570.69;5028966;28;20894;-53
2021/12/04 02:08:01;;;;;;;0.30;0.30;;;;;;;11.21;100.00;94572.25;5028827;28;20451;-52
2021/12/04 02:10:30;;;;;;;0.30;0.30;;;;;;;11.17;100.00;94573.91;5028004;28;20529;-52
2021/12/04 02:12:58;;;;;;;0.40;0.30;;;;;;;11.30;100.00;94572.38;5027651;28;20530;-52
2021/12/04 02:15:29;;;;;;;0.30;0.20;;;;;;;11.28;100.00;94572.66;5027696;28;20467;-52
2021/12/04 02:17:58;;;;;;;0.67;0.40;;;;;;;11.16;100.00;94564.38;5028420;28;20467;-52
2021/12/04 02:20:29;;;;;;;0.40;0.40;;;;;;;11.24;100.00;94565.56;5028580;28;20439;-52
2021/12/04 02:22:58;;;;;;;0.30;0.20;;;;;;;11.51;100.00;94560.31;5028301;28;20961;-52
2021/12/04 02:25:26;;;;;;;1.23;0.43;;;;;;;11.69;100.00;94554.19;5026632;28;21138;-52
2021/12/04 02:27:55;;;;;;;0.30;0.20;;;;;;;11.74;100.00;94551.44;5028091;28;20537;-52
2021/12/04 02:30:25;;;;;;;0.30;0.20;;;;;;;11.48;100.00;94552.97;5028116;28;20557;-52
2021/12/04 02:32:54;;;;;;;0.40;0.30;;;;;;;11.49;100.00;94542.03;5030847;28;20980;-53
2021/12/04 02:35:25;;;;;;;0.40;0.30;;;;;;;11.20;100.00;94483.16;5031132;28;20518;-53
2021/12/04 02:37:55;;;;;;;0.30;0.20;;;;;;;11.11;100.00;94458.38;5030765;28;20438;-53
2021/12/04 02:40:24;;;;;;;0.50;0.30;;;;;;;11.67;100.00;94539.59;5031347;28;20465;-53
2021/12/04 02:42:53;;;;;;;0.40;0.30;;;;;;;11.68;100.00;94544.66;5031515;28;20488;-53
2021/12/04 02:45:21;;;;;;;0.30;0.20;;;;;;;11.66;100.00;94549.44;5030009;28;20839;-53
2021/12/04 02:47:50;;;;;;;0.47;0.40;;;;;;;11.64;100.00;94545.50;5031221;28;20466;-53
2021/12/04 02:50:18;;;;;;;0.40;0.30;;;;;;;11.19;100.00;94539.94;5031020;28;21045;-52
2021/12/04 02:52:47;;;;;;;0.30;0.30;;;;;;;11.37;100.00;94557.66;5031409;28;20455;-52
2021/12/04 02:55:18;;;;;;;0.77;0.77;;;;;;;10.99;100.00;94553.53;5031070;28;20530;-52
2021/12/04 02:57:47;;;;;;;0.60;0.40;;;;;;;10.86;100.00;94522.44;5031368;28;20416;-53
2021/12/04 03:00:19;;;;;;;1.63;0.30;;;;;;;11.32;100.00;94565.72;5031439;28;20427;-53
2021/12/04 03:02:48;;;;;;;0.30;0.20;;;;;;;10.26;100.00;94446.56;5031237;28;20440;-53
2021/12/04 03:05:23;;;;;;;6.93;0.50;;;;;;;11.14;100.00;94574.50;5031501;28;20427;-53
2021/12/04 03:07:52;;;;;;;0.30;0.20;;;;;;;11.34;100.00;94558.22;5031310;28;20466;-53
2021/12/04 03:10:22;;;;;;;0.40;0.30;;;;;;;11.47;100.00;94551.38;5031099;28;20463;-53
2021/12/04 03:12:51;;;;;;;0.30;0.20;;;;;;;11.51;100.00;94543.63;5031014;28;20527;-53
2021/12/04 03:15:20;;;;;;;0.30;0.20;;;;;;;11.47;100.00;94533.59;5030851;28;20457;-53
2021/12/04 03:17:49;;;;;;;0.40;0.27;;;;;;;11.35;100.00;94533.28;5030971;28;20451;-53
2021/12/04 03:20:18;;;;;;;0.40;0.30;;;;;;;11.43;100.00;94529.94;5030483;28;20523;-53
2021/12/04 03:22:48;;;;;;;0.40;0.30;;;;;;;11.60;100.00;94529.38;5030966;28;20488;-53
2021/12/04 03:25:19;;;;;;;0.30;0.20;;;;;;;11.62;100.00;94529.88;5030625;28;21050;-53
2021/12/04 03:27:50;;;;;;;0.30;0.20;;;;;;;11.24;100.00;94539.84;5030922;28;20915;-53
2021/12/04 03:30:25;;;;;;;0.60;0.60;;;;;;;10.90;100.00;94549.97;5030394;28;21088;-53
2021/12/04 03:41:16;;;;;;;1.37;1.37;;;;;;;11.12;100.00;94547.47;5030818;28;20439;-53
2021/12/04 03:43:45;;;;;;;0.67;0.67;;;;;;;10.71;100.00;94443.19;5030682;28;20808;-53
2021/12/04 03:46:16;;;;;;;0.70;0.70;;;;;;;11.32;100.00;94533.06;5029417;28;20884;-53
2021/12/04 03:48:51;;;;;;;3.37;0.37;;;;;;;11.28;100.00;94532.88;5030304;28;20467;-53
2021/12/04 03:51:21;;;;;;;0.30;0.20;;;;;;;11.34;100.00;94515.78;5029571;28;20565;-53
2021/12/04 03:53:51;;;;;;;0.30;0.30;;;;;;;10.76;100.00;94420.03;5029771;28;20522;-53
2021/12/04 03:56:24;;;;;;;0.40;0.30;;;;;;;11.30;100.00;94508.72;5030337;28;20463;-53
2021/12/04 03:58:54;;;;;;;0.30;0.30;;;;;;;11.14;100.00;94510.06;5030454;28;20451;-53
2021/12/04 04:01:22;;;;;;;0.30;0.30;;;;;;;10.92;100.00;94496.66;5030308;28;20493;-53
2021/12/04 04:03:51;;;;;;;0.40;0.30;;;;;;;11.03;100.00;94503.38;5030150;28;20432;-53
2021/12/04 04:06:19;;;;;;;1.30;1.20;;;;;;;10.95;100.00;94498.72;5030361;28;20439;-53
2021/12/04 04:08:48;;;;;;;0.70;0.70;;;;;;;10.94;100.00;94502.44;5030456;28;20427;-53
2021/12/04 04:11:16;;;;;;;0.30;0.30;;;;;;;10.99;100.00;94497.84;5029998;28;20991;-53
2021/12/04 04:13:45;;;;;;;0.40;0.30;;;;;;;11.13;100.00;94490.69;5029162;28;20510;-53
2021/12/04 04:16:15;;;;;;;0.30;0.20;;;;;;;11.17;100.00;94489.06;5029783;28;20958;-53
2021/12/04 04:18:44;;;;;;;0.60;0.60;;;;;;;11.23;100.00;94482.56;5029699;28;20432;-53
2021/12/04 04:21:12;;;;;;;0.30;0.20;;;;;;;11.22;100.00;94485.50;5029671;28;20861;-53
2021/12/04 04:23:41;;;;;;;0.73;0.60;;;;;;;10.81;100.00;94491.50;5028998;28;20520;-53
2021/12/04 04:26:09;;;;;;;2.40;0.50;;;;;;;10.49;100.00;94490.72;5029827;28;20497;-53
2021/12/04 04:28:38;;;;;;;1.33;1.03;;;;;;;10.26;100.00;94504.81;5029954;28;20423;-53
2021/12/04 04:31:08;;;;;;;1.20;1.17;;;;;;;10.28;100.00;94497.38;5030044;28;20506;-53
2021/12/04 04:33:40;;;;;;;0.50;0.37;;;;;;;10.48;100.00;94491.78;5029618;28;20845;-53
2021/12/04 04:36:20;;;;;;;0.50;0.40;;;;;;;10.69;100.00;94493.03;5029645;28;20430;-53
2021/12/04 04:39:00;;;;;;;0.50;0.47;;;;;;;10.95;100.00;94491.56;5029589;28;20547;-53
2021/12/04 05:01:14;;;;;;;1.30;1.20;;;;;;;10.30;100.00;94492.56;5029203;27;20882;-53
2021/12/04 05:12:22;;;;;;;0.40;0.30;;;;;;;10.42;100.00;94508.84;5028635;28;20577;-54
2021/12/04 05:14:55;;;;;;;0.83;0.83;;;;;;;10.24;100.00;94517.56;5028209;28;20456;-54
2021/12/04 05:17:31;;;;;;;4.57;1.63;;;;;;;10.26;100.00;94515.41;5029143;28;20816;-54
2021/12/04 05:19:59;;;;;;;1.80;1.33;;;;;;;10.05;100.00;94505.06;5029423;28;20522;-54
2021/12/04 05:22:30;;;;;;;0.60;0.57;;;;;;;10.20;100.00;94518.13;5029387;28;20461;-53
2021/12/04 05:24:59;;;;;;;1.17;0.30;;;;;;;10.45;100.00;94513.56;5028701;28;21031;-53
2021/12/04 05:27:27;;;;;;;7.70;0.60;;;;;;;10.59;100.00;94514.41;5028923;28;20526;-51
2021/12/04 05:29:56;;;;;;;4.20;1.40;;;;;;;10.67;100.00;94509.25;5029228;28;20560;-53
2021/12/04 05:32:24;;;;;;;0.40;0.30;;;;;;;10.59;100.00;94504.59;5029146;28;20566;-54
2021/12/04 05:34:53;;;;;;;0.40;0.30;;;;;;;10.59;100.00;94512.53;5028845;28;20514;-54
2021/12/04 05:37:21;;;;;;;0.40;0.30;;;;;;;10.61;100.00;94518.34;5028425;28;20522;-53
2021/12/04 05:39:51;;;;;;;0.47;0.47;;;;;;;10.32;100.00;94524.88;5027223;28;20467;-54
2021/12/04 05:42:19;;;;;;;0.40;0.40;;;;;;;10.41;100.00;94529.22;5028788;28;20466;-54
2021/12/04 05:44:48;;;;;;;1.10;1.10;;;;;;;10.40;100.00;94537.47;5028831;28;20492;-54
2021/12/04 05:47:21;;;;;;;5.93;0.70;;;;;;;10.18;100.00;94533.53;5028743;28;20971;-54
2021/12/04 05:49:57;;;;;;;1.53;1.43;;;;;;;9.84;100.00;94545.31;5028702;28;20463;-53
2021/12/04 05:52:36;;;;;;;0.90;0.90;;;;;;;9.54;100.00;94544.56;5028526;28;20538;-53
2021/12/04 05:55:13;;;;;;;0.83;0.77;;;;;;;9.65;100.00;94542.63;5028717;28;20534;-53
2021/12/04 05:57:42;;;;;;;0.83;0.83;;;;;;;9.81;100.00;94549.31;5028873;28;20491;-53
2021/12/04 06:00:15;;;;;;;3.23;3.03;;;;;;;10.08;100.00;94536.28;5028513;28;20522;-53
2021/12/04 06:02:44;;;;;;;5.10;1.27;;;;;;;10.01;100.00;94543.78;5028829;28;20432;-53
2021/12/04 06:05:14;;;;;;;0.70;0.70;;;;;;;10.08;100.00;94552.16;5028604;28;20427;-53
2021/12/04 06:07:43;;;;;;;3.17;3.07;;;;;;;9.69;100.00;94569.31;5031502;28;20885;-53
2021/12/04 06:10:13;;;;;;;2.97;2.70;;;;;;;9.36;100.00;94565.69;5031581;28;20435;-54
2021/12/04 06:12:41;;;;;;;3.27;3.07;;;;;;;9.12;100.00;94556.91;5031517;28;20482;-53
2021/12/04 06:15:10;;;;;;;1.93;1.80;;;;;;;9.23;100.00;94568.97;5030632;28;20483;-53
2021/12/04 06:17:39;;;;;;;1.80;1.80;;;;;;;9.25;100.00;94566.84;5031726;28;20471;-53
2021/12/04 06:22:55;;;;;;;2.60;2.50;;;;;;;9.26;100.00;94574.47;5031247;28;20431;-53
2021/12/04 06:25:27;;;;;;;7.50;1.90;;;;;;;9.14;100.00;94562.69;5031517;28;20470;-53
2021/12/04 06:27:56;;;;;;;3.63;3.43;;;;;;;9.04;100.00;94571.50;5032129;28;20489;-53
2021/12/04 06:30:25;;;;;;;2.77;2.67;;;;;;;9.16;100.00;94571.91;5031602;28;20879;-53
2021/12/04 06:32:55;;;;;;;3.90;3.80;;;;;;;9.34;100.00;94575.72;5031434;28;20920;-53
2021/12/04 06:35:24;;;;;;;1.53;1.33;;;;;;;9.66;100.00;94580.44;5031957;28;20519;-53
2021/12/04 06:37:53;;;;;;;2.20;1.90;;;;;;;10.22;100.00;94573.44;5031930;28;20534;-53
2021/12/04 06:40:26;;;;;;;1.30;1.20;;;;;;;10.28;100.00;94571.53;5031476;28;20889;-54
2021/12/04 06:42:59;;;;;;;5.23;3.37;;;;;;;10.36;100.00;94576.97;5030968;28;20488;-54
2021/12/04 06:45:30;;;;;;;6.10;3.40;;;;;;;10.93;100.00;94569.81;5031151;28;20487;-53
2021/12/04 06:48:05;;;;;;;3.77;3.50;;;;;;;11.22;100.00;94570.38;5031638;28;20456;-54
2021/12/04 06:50:41;;;;;;;17.33;3.77;;;;;;;11.38;100.00;94558.44;5031638;28;20450;-54
2021/12/04 06:53:22;;;;;;;4.00;3.80;;;;;;;11.97;100.00;94565.59;5031274;28;20520;-53
2021/12/04 06:55:53;;;;;;;5.67;3.17;;;;;;;12.26;100.00;94567.94;5031440;28;20969;-54
2021/12/04 06:58:26;;;;;;;8.13;3.73;;;;;;;11.87;100.00;94571.09;5031293;28;20517;-53
2021/12/04 07:00:59;;;;;;;23.27;3.83;;;;;;;12.12;100.00;94578.56;5031528;28;20442;-53
2021/12/04 07:03:28;;;;;;;5.03;3.30;;;;;;;12.48;100.00;94534.22;5031028;28;20526;-54
2021/12/04 07:05:56;;;;;;;3.53;2.37;;;;;;;13.66;100.00;94552.44;5031042;28;20504;-55
2021/12/04 07:08:30;;;;;;;1.37;1.27;;;;;;;14.23;100.00;94572.69;5030547;28;20439;-55
2021/12/04 07:10:59;;;;;;;2.53;2.43;;;;;;;14.92;100.00;94580.84;5030903;28;20938;-56
2021/12/04 07:13:29;;;;;;;1.17;1.10;;;;;;;14.71;100.00;94590.53;5030547;28;20463;-55
2021/12/04 07:16:02;;;;;;;2.07;2.00;;;;;;;14.83;100.00;94591.50;5031128;28;20466;-56
2021/12/04 07:18:32;;;;;;;1.50;1.20;;;;;;;15.33;97.80;94588.34;5030737;28;20427;-57
2021/12/04 07:21:00;;;;;;;1.70;1.60;;;;;;;15.85;99.59;94581.81;5030831;28;20438;-56
2021/12/04 07:23:29;;;;;;;2.50;1.30;;;;;;;16.12;86.50;94521.78;5030704;28;20422;-57
2021/12/04 07:25:57;;;;;;;4.60;1.67;;;;;;;16.81;80.73;94576.47;5030830;28;20467;-58
2021/12/04 07:28:25;;;;;;;1.73;1.63;;;;;;;15.80;80.73;94565.97;5029751;28;20463;-59
2021/12/04 07:30:56;;;;;;;1.13;1.13;;;;;;;16.81;81.18;94573.00;5030784;28;20427;-60
2021/12/04 07:33:25;;;;;;;1.17;1.07;;;;;;;16.70;79.16;94579.84;5030462;28;20467;-59
2021/12/04 07:35:53;;;;;;;1.60;1.50;;;;;;;16.96;80.39;94557.16;5030447;28;20861;-60
2021/12/04 07:38:22;;;;;;;1.73;1.63;;;;;;;17.32;76.55;94564.56;5030385;28;20514;-60
2021/12/04 07:40:51;;;;;;;2.73;0.80;;;;;;;17.84;72.30;94572.09;5030632;28;20847;-59
2021/12/04 07:43:19;;;;;;;2.83;0.97;;;;;;;18.24;68.53;94581.09;5030479;28;20427;-57
2021/12/04 07:45:48;;;;;;;0.97;0.97;;;;;;;17.98;66.99;94578.72;5030569;28;20942;-57
2021/12/04 07:48:18;;;;;;;1.07;0.97;;;;;;;18.31;64.61;94584.00;5030533;28;20457;-54
2021/12/04 07:50:46;;;;;;;0.50;0.30;;;;;;;18.31;65.95;94584.81;5030355;28;20534;-55
2021/12/04 07:53:14;;;;;;;0.50;0.40;;;;;;;18.20;61.74;94580.19;5030756;28;20525;-55
2021/12/04 07:55:43;;;;;;;3.80;2.00;;;;;;;19.46;62.61;94587.88;5030618;28;20427;-53
2021/12/04 07:58:11;;;;;;;0.83;0.83;;;;;;;19.20;66.65;94592.88;5030330;28;20484;-53
2021/12/04 08:00:40;;;;;;;1.07;0.80;;;;;;;19.03;64.95;94594.69;5030689;28;20497;-54
2021/12/04 08:03:09;;;;;;;0.73;0.73;;;;;;;18.91;64.31;94592.03;5030011;28;20476;-52
2021/12/04 08:05:44;;;;;;;0.50;0.40;;;;;;;19.91;68.51;94592.94;5030284;28;20514;-52
2021/12/04 08:08:13;;;;;;;0.80;0.60;;;;;;;19.20;62.29;94604.38;5029691;28;20518;-52
2021/12/04 08:10:42;;;;;;;0.90;0.53;;;;;;;19.53;62.03;94598.84;5030399;28;20850;-52
2021/12/04 08:13:10;;;;;;;0.50;0.40;;;;;;;19.77;57.21;94604.09;5030006;28;20994;-52
2021/12/04 08:15:39;;;;;;;1.13;0.33;;;;;;;20.31;55.17;94596.28;5030212;28;20523;-52
2021/12/04 08:18:12;;;;;;;0.87;0.87;;;;;;;20.50;52.25;94617.09;5030266;28;20447;-53
2021/12/04 08:20:41;;;;;;;0.50;0.50;;;;;;;20.56;51.80;94615.72;5030129;28;20474;-53
2021/12/04 08:23:11;;;;;;;0.80;0.50;;;;;;;21.15;53.03;94631.72;5029799;28;20443;-54
2021/12/04 08:25:40;;;;;;;19.97;1.43;;;;;;;21.52;48.61;94609.41;5029601;28;20571;-53
2021/12/04 08:28:09;;;;;;;0.70;0.70;;;;;;;21.60;47.67;94609.56;5029753;28;20488;-53
2021/12/04 08:30:40;;;;;;;1.17;0.50;;;;;;;22.23;47.44;94616.16;5028920;28;20527;-53
2021/12/04 08:33:10;;;;;;;0.70;0.57;;;;;;;22.33;47.83;94609.38;5029905;28;20467;-54
2021/12/04 08:35:40;;;;;;;0.70;0.57;;;;;;;22.60;44.98;94560.44;5029638;28;20542;-54
2021/12/04 08:38:09;;;;;;;0.40;0.30;;;;;;;22.69;43.93;94600.75;5029532;28;20970;-53
2021/12/04 08:40:42;;;;;;;0.80;0.50;;;;;;;22.59;43.85;94602.09;5029528;28;20963;-54
2021/12/04 08:43:13;;;;;;;1.27;0.70;;;;;;;22.54;41.62;94580.78;5029836;28;20447;-54
2021/12/04 08:45:43;;;;;;;0.90;0.70;;;;;;;22.95;41.08;94608.84;5029253;28;20926;-54
2021/12/04 08:48:12;;;;;;;1.47;1.37;;;;;;;22.58;41.13;94548.44;5029678;28;20853;-54
2021/12/04 08:50:41;;;;;;;1.70;1.10;;;;;;;23.61;41.01;94608.22;5029256;28;20526;-54
2021/12/04 08:53:11;;;;;;;0.60;0.50;;;;;;;23.71;42.25;94599.44;5029546;28;20543;-54
2021/12/04 08:55:42;;;;;;;0.50;0.50;;;;;;;23.34;41.77;94563.41;5029630;28;20474;-53
2021/12/04 08:58:12;;;;;;;1.23;0.63;;;;;;;24.73;39.27;94591.53;5029654;28;20506;-53
2021/12/04 09:00:48;;;;;;;0.50;0.30;;;;;;;24.48;39.43;94583.22;5029129;28;20496;-53
2021/12/04 09:03:19;;;;;;;0.87;0.43;;;;;;;24.74;39.79;94582.28;5029597;28;20439;-53
2021/12/04 09:05:50;;;;;;;0.80;0.50;;;;;;;23.69;41.12;94580.09;5029262;28;20467;-52
2021/12/04 09:08:19;;;;;;;1.00;1.00;;;;;;;23.95;40.54;94590.84;5029265;28;20431;-53
2021/12/04 09:10:49;;;;;;;0.50;0.40;;;;;;;26.00;36.78;94573.22;5028779;28;20469;-53
2021/12/04 09:13:18;;;;;;;0.70;0.50;;;;;;;25.69;35.94;94571.19;5028978;28;20470;-53
2021/12/04 09:15:49;;;;;;;1.23;0.73;;;;;;;25.41;38.31;94576.47;5029080;28;20427;-53
2021/12/04 09:18:17;;;;;;;3.33;0.70;;;;;;;26.31;36.66;94567.09;5029183;28;20480;-53
2021/12/04 09:20:47;;;;;;;0.50;0.47;;;;;;;26.79;33.68;94558.59;5029331;28;20468;-53
2021/12/04 09:23:18;;;;;;;0.40;0.30;;;;;;;26.23;33.45;94556.63;5028736;28;20471;-54
2021/12/04 09:25:49;;;;;;;0.77;0.50;;;;;;;24.94;35.34;94563.84;5028739;28;20431;-53
2021/12/04 09:28:23;;;;;;;0.40;0.30;;;;;;;25.97;36.25;94556.91;5029122;28;20840;-53
2021/12/04 09:31:26;;;;;;;1.90;0.60;;;;;;;26.03;34.64;94555.41;5028857;28;20440;-53
2021/12/04 10:01:55;;;;;;;0.60;0.47;;;;;;;25.76;35.46;94534.00;5031077;28;20986;-54
2021/12/04 10:04:52;;;;;;;0.63;0.63;;;;;;;25.58;35.83;94527.72;5031671;28;20458;-54
2021/12/04 10:21:54;;;;;;;0.77;0.77;;;;;;;26.52;35.03;94503.03;5031704;28;20877;-54
2021/12/04 10:33:11;;;;;;;14.37;1.37;;;;;;;24.85;36.01;94455.75;5031615;28;20550;-57
2021/12/04 10:35:41;;;;;;;0.93;0.93;;;;;;;26.27;36.17;94492.97;5031173;28;20466;-57
2021/12/04 10:38:22;;;;;;;0.50;0.40;;;;;;;26.12;35.75;94494.13;5031106;28;20554;-56
2021/12/04 10:40:52;;;;;;;0.40;0.30;;;;;;;26.31;34.27;94496.44;5030716;28;20431;-56
2021/12/04 10:43:24;;;;;;;0.40;0.30;;;;;;;25.50;36.04;94496.31;5031028;28;20968;-56
2021/12/04 10:45:55;;;;;;;0.77;0.77;;;;;;;24.06;38.82;94500.81;5031667;28;20878;-56
2021/12/04 10:48:28;;;;;;;0.40;0.30;;;;;;;25.38;37.99;94498.56;5031340;28;20463;-56
2021/12/04 10:51:07;;;;;;;0.80;0.80;;;;;;;25.20;36.29;94496.56;5031388;28;20427;-56
2021/12/04 10:53:45;;;;;;;0.50;0.40;;;;;;;24.66;36.51;94501.28;5030782;28;20506;-56
2021/12/04 10:56:25;;;;;;;1.13;1.03;;;;;;;24.60;38.69;94506.28;5031323;28;20518;-56
2021/12/04 10:59:24;;;;;;;0.40;0.30;;;;;;;25.89;36.47;94507.25;5030933;28;20438;-57
2021/12/04 11:02:02;;;;;;;0.40;0.30;;;;;;;28.15;31.60;94499.34;5031449;28;20500;-57
2021/12/04 11:04:39;;;;;;;0.40;0.30;;;;;;;25.57;35.01;94506.41;5031038;28;20522;-56
2021/12/04 11:07:34;;;;;;;1.60;0.63;;;;;;;26.76;33.69;94489.44;5031118;28;20934;-56
2021/12/04 11:18:49;;;;;;;2.73;0.57;;;;;;;25.68;34.14;94494.41;5030887;28;20447;-56
2021/12/04 11:27:20;;;;;;;0.37;0.30;;;;;;;25.39;35.07;94446.66;5031172;28;20446;-56
2021/12/04 11:38:18;;;;;;;0.40;0.30;;;;;;;25.81;35.17;94489.41;5030228;28;20443;-56
2021/12/04 11:43:50;;;;;;;0.47;0.47;;;;;;;27.33;32.80;94472.94;5039612;27;20439;-56
2021/12/04 11:46:22;;;;;;;0.40;0.30;;;;;;;25.60;35.71;94479.28;5030226;28;20488;-56
2021/12/04 11:48:52;;;;;;;0.40;0.30;;;;;;;25.51;35.98;94475.38;5030544;28;21075;-56
2021/12/04 11:51:23;;;;;;;0.83;0.83;;;;;;;27.03;33.08;94479.66;5030599;28;20458;-56
2021/12/04 11:53:54;;;;;;;0.77;0.60;;;;;;;25.29;34.99;94460.19;5030544;28;20503;-56
2021/12/04 11:56:29;;;;;;;0.50;0.40;;;;;;;24.44;36.99;94473.28;5030726;28;20455;-56
2021/12/04 11:58:58;;;;;;;0.40;0.30;;;;;;;25.67;36.07;94470.38;5030145;28;20848;-56
2021/12/04 12:01:31;;;;;;;3.63;0.40;;;;;;;26.52;34.11;94467.69;5030166;28;20467;-56
2021/12/04 12:04:03;;;;;;;1.00;1.00;;;;;;;26.29;34.58;94466.19;5028420;28;20455;-56
2021/12/04 12:06:35;;;;;;;0.30;0.30;;;;;;;27.00;33.35;94466.06;5029778;28;20431;-56
2021/12/04 12:09:12;;;;;;;0.30;0.20;;;;;;;27.79;32.23;94446.25;5029849;28;20432;-56
2021/12/04 12:11:50;;;;;;;0.40;0.33;;;;;;;26.40;34.26;94460.75;5029768;28;20988;-56
2021/12/04 12:14:22;;;;;;;0.60;0.50;;;;;;;25.59;34.59;94469.59;5030328;28;20833;-55
2021/12/04 12:16:54;;;;;;;1.30;0.40;;;;;;;24.26;36.25;94466.97;5030081;28;20427;-55
2021/12/04 12:19:27;;;;;;;0.40;0.40;;;;;;;23.66;37.68;94461.78;5029776;28;20507;-55
2021/12/04 12:21:58;;;;;;;0.60;0.60;;;;;;;24.05;38.30;94459.44;5029792;28;20930;-55
2021/12/04 12:24:37;;;;;;;0.40;0.30;;;;;;;25.41;36.13;94459.81;5029647;28;20522;-55
2021/12/04 12:27:22;;;;;;;1.73;0.73;;;;;;;24.49;36.88;94432.28;5030029;28;20461;-56
2021/12/04 12:38:29;;;;;;;1.77;1.60;;;;;;;20.07;47.42;94467.28;5029613;28;20807;-55
2021/12/04 12:41:01;;;;;;;0.50;0.43;;;;;;;20.77;47.33;94468.09;5029583;28;20991;-55
2021/12/04 12:43:44;;;;;;;9.30;0.83;;;;;;;20.73;45.93;94468.03;5030089;28;20474;-55
2021/12/04 12:46:13;;;;;;;0.60;0.60;;;;;;;20.01;48.95;94474.06;5028579;28;20513;-56
2021/12/04 12:48:52;;;;;;;0.70;0.70;;;;;;;20.11;49.26;94450.09;5029516;28;20424;-56
2021/12/04 12:51:28;;;;;;;0.50;0.40;;;;;;;19.64;51.80;94468.16;5029572;28;20459;-56
2021/12/04 12:53:59;;;;;;;0.60;0.60;;;;;;;19.14;55.92;94463.38;5029419;28;20462;-55
2021/12/04 12:56:31;;;;;;;1.13;1.13;;;;;;;19.21;57.12;94473.53;5029709;28;20503;-55
2021/12/04 12:59:04;;;;;;;0.50;0.50;;;;;;;19.56;54.93;94469.91;5029248;28;20486;-57
2021/12/04 13:13:34;;;;;;;0.90;0.40;;;;;;;20.89;45.38;94465.28;5049490;28;20426;-56
2021/12/04 13:16:14;;;;;;;1.47;0.40;;;;;;;20.19;45.92;94465.25;5049200;28;20513;-56
2021/12/04 13:18:46;;;;;;;0.50;0.50;;;;;;;20.77;45.77;94476.19;5038109;28;20439;-56
2021/12/04 13:21:15;;;;;;;0.40;0.33;;;;;;;20.07;45.80;94476.13;5029104;28;20526;-56
2021/12/04 13:23:49;;;;;;;4.47;1.17;;;;;;;20.14;45.99;94473.59;5027808;28;20488;-55
2021/12/04 13:26:28;;;;;;;0.80;0.50;;;;;;;20.02;45.80;94470.22;5028850;28;20491;-57
2021/12/04 13:29:00;;;;;;;1.20;0.63;;;;;;;19.98;46.52;94475.56;5029117;28;20427;-57
2021/12/04 13:31:30;;;;;;;0.50;0.50;;;;;;;19.86;46.84;94472.94;5029063;28;20427;-56
2021/12/04 13:33:59;;;;;;;0.50;0.50;;;;;;;20.18;46.06;94458.34;5028895;28;20992;-56
2021/12/04 13:36:30;;;;;;;1.07;0.93;;;;;;;20.76;45.15;94461.16;5028854;28;20578;-56
2021/12/04 13:39:00;;;;;;;0.40;0.40;;;;;;;20.42;45.86;94467.31;5029343;28;20455;-56
2021/12/04 13:41:29;;;;;;;0.67;0.57;;;;;;;19.66;46.93;94473.97;5028857;28;20509;-56
2021/12/04 13:44:01;;;;;;;1.37;0.60;;;;;;;19.23;50.09;94473.97;5028855;28;20423;-57
2021/12/04 13:46:39;;;;;;;0.63;0.30;;;;;;;19.67;49.47;94478.22;5028617;28;20813;-54
2021/12/04 13:49:08;;;;;;;1.20;0.60;;;;;;;19.55;50.67;94475.63;5028313;28;20857;-56
2021/12/04 13:51:36;;;;;;;2.43;0.90;;;;;;;19.30;50.60;94474.94;5028561;28;20474;-56
2021/12/04 13:54:05;;;;;;;0.50;0.30;;;;;;;19.36;51.76;94470.88;5028680;28;20480;-56
2021/12/04 13:56:34;;;;;;;1.20;0.70;;;;;;;18.32;52.77;94476.34;5028557;28;20528;-56
2021/12/04 13:59:06;;;;;;;0.50;0.40;;;;;;;18.86;52.17;94441.13;5028037;28;20976;-56
2021/12/04 14:01:42;;;;;;;0.60;0.50;;;;;;;19.71;49.30;94481.03;5028888;28;20423;-57
2021/12/04 14:04:17;;;;;;;0.60;0.50;;;;;;;19.60;50.58;94486.13;5027736;28;20456;-57
2021/12/04 14:06:53;;;;;;;0.57;0.57;;;;;;;19.35;49.72;94420.97;5028542;28;20493;-57
2021/12/04 14:09:23;;;;;;;2.20;2.10;;;;;;;17.75;57.15;94440.88;5028864;28;20534;-58
2021/12/04 14:11:55;;;;;;;1.17;1.07;;;;;;;17.17;65.44;94486.75;5028545;28;20725;-59
2021/12/04 14:14:27;;;;;;;1.57;0.63;;;;;;;17.38;65.65;94485.56;5028041;28;20463;-60
2021/12/04 14:17:04;;;;;;;5.60;1.20;;;;;;;17.45;66.76;94493.84;5028420;28;20471;-60
2021/12/04 14:19:33;;;;;;;0.73;0.73;;;;;;;17.35;67.22;94490.81;5028697;28;20435;-61